Time;durP1;ratioP1;P1;durP2;ratioP2;P2;SDS_P1;SDS_P2;PMS_P1;PMS_P2;Temp;Humidity;BMP_temperature;BMP_pressure;BME280_temperature;BME280_humidity;BME280_pressure;Samples;Min_cycle;Max_cycle;Signal;HPM_P1;HPM_P2
2022/05/09 00:01:56;;;;;;;11.43;4.53;;;;;;;;;;6235716;28;20271;-84
2022/05/09 00:04:57;;;;;;;10.85;4.43;;;;;;;;;;6241984;28;20252;-84
2022/05/09 00:07:57;;;;;;;7.78;4.45;;;;;;;;;;6241912;28;20025;-84
2022/05/09 00:10:57;;;;;;;7.30;3.88;;;;;;;;;;6207906;28;20026;-84
2022/05/09 00:13:58;;;;;;;8.37;4.00;;;;;;;;;;6218167;28;20128;-84
2022/05/09 00:16:58;;;;;;;9.27;4.15;;;;;;;;;;6241608;28;20256;-84
2022/05/09 00:19:58;;;;;;;10.80;4.53;;;;;;;;;;6242017;28;20433;-84
2022/05/09 00:22:58;;;;;;;10.73;4.73;;;;;;;;;;6231859;28;20057;-84
2022/05/09 00:26:00;;;;;;;13.25;4.45;;;;;;;;;;6217178;28;20421;-84
2022/05/09 00:29:02;;;;;;;;;;;;;;;;;;6217684;28;20025;-84
2022/05/09 00:32:02;;;;;;;16.20;5.80;;;;;;;;;;6216894;28;19916;-84
2022/05/09 00:35:03;;;;;;;11.02;4.88;;;;;;;;;;6216907;28;20010;-84
2022/05/09 00:38:04;;;;;;;13.27;4.88;;;;;;;;;;6204895;28;20021;-84
2022/05/09 00:44:27;;;;;;;11.05;5.35;;;;;;;;;;6242089;28;20083;-84
2022/05/09 00:47:27;;;;;;;9.43;4.50;;;;;;;;;;6223579;28;20737;-84
2022/05/09 00:50:29;;;;;;;9.23;5.20;;;;;;;;;;6241556;28;20025;-84
2022/05/09 00:53:30;;;;;;;11.68;5.05;;;;;;;;;;6241074;28;20260;-84
2022/05/09 00:57:00;;;;;;;11.80;4.00;;;;;;;;;;6202463;28;20021;-84
2022/05/09 01:00:04;;;;;;;11.38;4.22;;;;;;;;;;6236251;28;20483;-84
2022/05/09 01:03:07;;;;;;;8.13;3.47;;;;;;;;;;6325946;28;20068;-84
2022/05/09 01:06:08;;;;;;;7.15;3.40;;;;;;;;;;6326296;28;20027;-84
2022/05/09 01:09:10;;;;;;;9.07;3.95;;;;;;;;;;6259882;28;20050;-84
2022/05/09 01:12:12;;;;;;;6.93;3.50;;;;;;;;;;6216979;28;20533;-84
2022/05/09 01:15:13;;;;;;;7.05;3.80;;;;;;;;;;6203036;28;20026;-84
2022/05/09 01:18:16;;;;;;;8.23;4.22;;;;;;;;;;6221103;28;20074;-84
2022/05/09 01:21:39;;;;;;;10.43;4.30;;;;;;;;;;6202570;28;20033;-84
2022/05/09 01:24:39;;;;;;;9.23;5.50;;;;;;;;;;6202904;28;20057;-84
2022/05/09 01:27:41;;;;;;;11.03;5.83;;;;;;;;;;6220514;28;20423;-84
2022/05/09 01:30:48;;;;;;;14.23;5.22;;;;;;;;;;6196227;28;20281;-84
2022/05/09 01:33:51;;;;;;;13.48;4.93;;;;;;;;;;6178970;28;20050;-84
2022/05/09 01:36:55;;;;;;;9.68;4.05;;;;;;;;;;6184091;28;20025;-84
2022/05/09 01:39:56;;;;;;;10.25;4.88;;;;;;;;;;6227156;28;20029;-84
2022/05/09 01:42:56;;;;;;;14.57;4.90;;;;;;;;;;6205629;28;20481;-84
2022/05/09 01:45:56;;;;;;;12.13;5.30;;;;;;;;;;6202559;28;20747;-84
2022/05/09 01:52:15;;;;;;;11.45;5.90;;;;;;;;;;6219732;28;20018;-84
2022/05/09 01:55:16;;;;;;;15.15;5.18;;;;;;;;;;6204414;28;20025;-84
2022/05/09 01:58:16;;;;;;;12.83;4.90;;;;;;;;;;6244709;28;20024;-84
2022/05/09 02:01:17;;;;;;;14.47;6.03;;;;;;;;;;6204379;28;20253;-84
2022/05/09 02:04:17;;;;;;;10.77;5.38;;;;;;;;;;6195987;28;20258;-84
2022/05/09 02:07:19;;;;;;;12.30;4.53;;;;;;;;;;6202826;28;20013;-84
2022/05/09 02:10:19;;;;;;;8.25;4.30;;;;;;;;;;6232585;28;20457;-85
2022/05/09 02:13:20;;;;;;;10.10;5.43;;;;;;;;;;6219373;28;20071;-84
2022/05/09 02:16:20;;;;;;;13.35;4.85;;;;;;;;;;6222383;28;20021;-84
2022/05/09 02:19:20;;;;;;;8.25;4.38;;;;;;;;;;6225095;28;20017;-84
2022/05/09 02:22:20;;;;;;;11.10;4.67;;;;;;;;;;6184405;28;20049;-83
2022/05/09 02:25:29;;;;;;;15.30;6.37;;;;;;;;;;6218912;28;20744;-84
2022/05/09 02:28:29;;;;;;;11.13;5.60;;;;;;;;;;6219460;28;20398;-84
2022/05/09 02:31:31;;;;;;;15.15;7.03;;;;;;;;;;6201402;28;20026;-84
2022/05/09 02:34:31;;;;;;;;;;;;;;;;;;6193525;28;20050;-84
2022/05/09 02:37:32;;;;;;;15.65;7.85;;;;;;;;;;6257015;28;19910;-84
2022/05/09 02:40:33;;;;;;;16.58;8.60;;;;;;;;;;6329712;28;20062;-84
2022/05/09 02:43:34;;;;;;;15.55;6.93;;;;;;;;;;6254089;28;20413;-84
2022/05/09 02:46:34;;;;;;;13.75;7.30;;;;;;;;;;6226150;28;20026;-84
2022/05/09 02:49:34;;;;;;;17.90;6.10;;;;;;;;;;6225512;28;20070;-84
2022/05/09 02:52:37;;;;;;;12.02;5.60;;;;;;;;;;6225824;28;20014;-84
2022/05/09 02:55:37;;;;;;;10.25;5.43;;;;;;;;;;6232460;28;20021;-84
2022/05/09 02:58:37;;;;;;;9.77;5.63;;;;;;;;;;6225943;28;20083;-84
2022/05/09 03:01:38;;;;;;;10.77;5.43;;;;;;;;;;6314300;28;20257;-84
2022/05/09 03:04:41;;;;;;;12.23;5.50;;;;;;;;;;6347405;28;20272;-84
2022/05/09 03:07:41;;;;;;;13.70;7.55;;;;;;;;;;6327798;28;20254;-83
2022/05/09 03:10:42;;;;;;;9.87;5.50;;;;;;;;;;6253829;28;20128;-83
2022/05/09 03:13:42;;;;;;;10.65;5.97;;;;;;;;;;6200678;28;20601;-84
2022/05/09 03:16:42;;;;;;;9.05;5.25;;;;;;;;;;6224070;28;20017;-84
2022/05/09 03:19:43;;;;;;;11.20;5.13;;;;;;;;;;6225578;28;20437;-83
2022/05/09 03:22:43;;;;;;;9.88;5.25;;;;;;;;;;6224198;28;20018;-84
2022/05/09 03:25:43;;;;;;;5.67;3.63;;;;;;;;;;6217972;28;20018;-84
2022/05/09 03:28:44;;;;;;;7.68;4.13;;;;;;;;;;6218632;28;20306;-84
2022/05/09 03:31:46;;;;;;;10.27;5.07;;;;;;;;;;6200620;28;20022;-84
2022/05/09 03:34:46;;;;;;;11.07;4.75;;;;;;;;;;6218188;28;20010;-84
2022/05/09 03:37:46;;;;;;;9.00;4.35;;;;;;;;;;6222710;28;20024;-84
2022/05/09 03:40:46;;;;;;;11.63;4.30;;;;;;;;;;6218135;28;20022;-84
2022/05/09 03:43:47;;;;;;;7.10;4.22;;;;;;;;;;6241504;28;20022;-84
2022/05/09 03:46:47;;;;;;;8.07;3.85;;;;;;;;;;6242409;28;20051;-84
2022/05/09 03:49:47;;;;;;;10.37;4.37;;;;;;;;;;6224482;28;20024;-84
2022/05/09 03:52:47;;;;;;;8.17;4.23;;;;;;;;;;6224486;28;20260;-84
2022/05/09 03:55:48;;;;;;;11.03;4.23;;;;;;;;;;6209398;28;20017;-84
2022/05/09 03:58:48;;;;;;;6.93;3.53;;;;;;;;;;6199500;28;20285;-84
2022/05/09 04:01:48;;;;;;;9.57;4.00;;;;;;;;;;6218017;28;20355;-84
2022/05/09 04:04:48;;;;;;;7.53;3.83;;;;;;;;;;6224046;28;20422;-84
2022/05/09 04:07:50;;;;;;;8.80;3.80;;;;;;;;;;6242061;28;20263;-84
2022/05/09 04:10:52;;;;;;;8.52;4.20;;;;;;;;;;6226183;28;20296;-84
2022/05/09 04:13:52;;;;;;;7.95;4.35;;;;;;;;;;6217317;28;20021;-84
2022/05/09 04:16:52;;;;;;;9.07;4.30;;;;;;;;;;6241852;28;20018;-84
2022/05/09 04:19:52;;;;;;;10.57;5.27;;;;;;;;;;6224137;28;20268;-84
2022/05/09 04:22:54;;;;;;;10.60;5.70;;;;;;;;;;6204650;28;20290;-84
2022/05/09 04:25:54;;;;;;;15.98;7.03;;;;;;;;;;6209085;28;20105;-84
2022/05/09 04:28:54;;;;;;;12.23;5.67;;;;;;;;;;6216943;28;20048;-84
2022/05/09 04:31:55;;;;;;;14.87;7.07;;;;;;;;;;6199410;28;20289;-84
2022/05/09 04:34:55;;;;;;;15.68;6.28;;;;;;;;;;6199547;28;20407;-84
2022/05/09 04:37:55;;;;;;;11.90;6.00;;;;;;;;;;6210775;28;20484;-84
2022/05/09 04:40:58;;;;;;;15.45;6.47;;;;;;;;;;6225596;28;20024;-84
2022/05/09 04:43:59;;;;;;;16.63;6.20;;;;;;;;;;6326355;28;20016;-84
2022/05/09 04:46:59;;;;;;;21.85;7.00;;;;;;;;;;6260674;28;20362;-84
2022/05/09 04:50:00;;;;;;;10.07;6.07;;;;;;;;;;6216667;28;20018;-84
2022/05/09 04:53:00;;;;;;;16.77;6.27;;;;;;;;;;6216526;28;20022;-84
2022/05/09 04:56:00;;;;;;;12.23;5.25;;;;;;;;;;6199006;28;20146;-84
2022/05/09 04:59:01;;;;;;;9.70;4.63;;;;;;;;;;6192555;28;20046;-84
2022/05/09 05:02:01;;;;;;;9.93;5.60;;;;;;;;;;6201257;28;20022;-84
2022/05/09 05:05:02;;;;;;;13.37;6.37;;;;;;;;;;6198212;28;20022;-84
2022/05/09 05:08:02;;;;;;;10.50;4.00;;;;;;;;;;6185571;28;20037;-84
2022/05/09 05:11:03;;;;;;;10.10;3.70;;;;;;;;;;6197110;28;20029;-84
2022/05/09 05:14:04;;;;;;;6.97;3.40;;;;;;;;;;6197728;28;20256;-84
2022/05/09 05:17:04;;;;;;;7.77;3.33;;;;;;;;;;6195336;28;20022;-84
2022/05/09 05:20:09;;;;;;;7.80;4.27;;;;;;;;;;6174454;28;20033;-84
2022/05/09 05:23:09;;;;;;;8.35;3.55;;;;;;;;;;6204729;28;20501;-84
2022/05/09 05:26:12;;;;;;;9.80;3.67;;;;;;;;;;6207148;28;20056;-84
2022/05/09 05:29:13;;;;;;;11.07;3.60;;;;;;;;;;6196973;28;20030;-84
2022/05/09 05:32:14;;;;;;;10.88;3.85;;;;;;;;;;6193980;28;20042;-84
2022/05/09 05:35:15;;;;;;;11.40;5.17;;;;;;;;;;6198346;28;20101;-84
2022/05/09 05:38:16;;;;;;;8.95;3.55;;;;;;;;;;6230950;28;20484;-84
2022/05/09 05:41:16;;;;;;;9.60;4.10;;;;;;;;;;6223965;28;20029;-84
2022/05/09 05:44:16;;;;;;;5.57;3.13;;;;;;;;;;6220735;28;20074;-84
2022/05/09 05:47:18;;;;;;;6.07;2.93;;;;;;;;;;6178224;28;20030;-84
2022/05/09 05:50:20;;;;;;;6.75;3.53;;;;;;;;;;6174360;28;20058;-84
2022/05/09 05:53:20;;;;;;;8.13;4.15;;;;;;;;;;6191843;28;20032;-84
2022/05/09 05:56:20;;;;;;;8.03;3.97;;;;;;;;;;6206544;28;20034;-84
2022/05/09 05:59:21;;;;;;;9.00;4.00;;;;;;;;;;6193790;28;20035;-85
2022/05/09 06:02:21;;;;;;;6.47;2.87;;;;;;;;;;6181037;28;20019;-84
2022/05/09 06:05:22;;;;;;;7.77;3.63;;;;;;;;;;6179362;28;20018;-84
2022/05/09 06:08:22;;;;;;;4.17;2.77;;;;;;;;;;6184560;28;20038;-84
2022/05/09 06:11:22;;;;;;;5.80;3.23;;;;;;;;;;6200338;28;20033;-84
2022/05/09 06:14:22;;;;;;;6.87;3.00;;;;;;;;;;6203691;28;20021;-84
2022/05/09 06:17:23;;;;;;;7.57;3.40;;;;;;;;;;6195113;28;20026;-84
2022/05/09 06:20:23;;;;;;;6.97;3.60;;;;;;;;;;6197459;28;20023;-84
2022/05/09 06:23:25;;;;;;;9.47;3.43;;;;;;;;;;6189114;28;20030;-84
2022/05/09 06:26:26;;;;;;;6.07;3.78;;;;;;;;;;6201820;28;20727;-84
2022/05/09 06:29:27;;;;;;;6.88;2.78;;;;;;;;;;6202307;28;20038;-84
2022/05/09 06:32:27;;;;;;;7.83;4.03;;;;;;;;;;6212487;28;20026;-84
2022/05/09 06:35:27;;;;;;;6.23;2.80;;;;;;;;;;6178886;28;20022;-84
2022/05/09 06:38:28;;;;;;;4.97;2.93;;;;;;;;;;6186087;28;20075;-84
2022/05/09 06:41:28;;;;;;;5.63;2.77;;;;;;;;;;6198891;28;20021;-84
2022/05/09 06:44:28;;;;;;;8.73;3.03;;;;;;;;;;6203068;28;20030;-84
2022/05/09 06:47:29;;;;;;;7.10;3.50;;;;;;;;;;6183232;28;20033;-84
2022/05/09 06:50:31;;;;;;;6.03;2.80;;;;;;;;;;6199825;28;20049;-84
2022/05/09 06:53:31;;;;;;;6.90;2.80;;;;;;;;;;6196337;28;20052;-84
2022/05/09 06:56:31;;;;;;;5.67;2.37;;;;;;;;;;6182091;28;20025;-84
2022/05/09 06:59:32;;;;;;;4.07;2.33;;;;;;;;;;6211574;28;20094;-84
2022/05/09 07:02:32;;;;;;;6.80;3.30;;;;;;;;;;6207450;28;20030;-84
2022/05/09 07:05:32;;;;;;;7.57;2.67;;;;;;;;;;6264715;28;20415;-85
2022/05/09 07:08:33;;;;;;;7.67;2.80;;;;;;;;;;6215355;28;20050;-85
2022/05/09 07:11:33;;;;;;;6.10;2.30;;;;;;;;;;6222808;28;20036;-85
2022/05/09 07:14:34;;;;;;;8.40;2.57;;;;;;;;;;6222027;28;20100;-85
2022/05/09 07:17:34;;;;;;;9.40;3.30;;;;;;;;;;6227288;28;20014;-85
2022/05/09 07:20:35;;;;;;;12.10;3.97;;;;;;;;;;6271184;28;20167;-84
2022/05/09 07:23:36;;;;;;;8.82;3.95;;;;;;;;;;6219770;28;20082;-85
2022/05/09 07:26:36;;;;;;;9.63;3.63;;;;;;;;;;6209691;28;20046;-85
2022/05/09 07:29:36;;;;;;;;;;;;;;;;;;6201461;28;20384;-85
2022/05/09 07:32:36;;;;;;;10.02;3.35;;;;;;;;;;6216567;28;19909;-85
2022/05/09 07:35:37;;;;;;;;;;;;;;;;;;6222414;28;20423;-85
2022/05/09 07:38:37;;;;;;;11.80;2.53;;;;;;;;;;6219391;28;19913;-85
2022/05/09 07:41:37;;;;;;;3.60;2.03;;;;;;;;;;6199125;28;20026;-86
2022/05/09 07:44:38;;;;;;;8.10;2.83;;;;;;;;;;6216287;28;20026;-85
2022/05/09 07:47:39;;;;;;;6.18;2.67;;;;;;;;;;6277771;28;20026;-85
2022/05/09 07:50:40;;;;;;;6.00;2.20;;;;;;;;;;6216541;28;20034;-85
2022/05/09 07:53:40;;;;;;;5.90;2.97;;;;;;;;;;6215972;28;20022;-85
2022/05/09 07:56:43;;;;;;;8.52;2.33;;;;;;;;;;6264957;28;20049;-85
2022/05/09 07:59:44;;;;;;;4.57;2.05;;;;;;;;;;6221360;28;20158;-84
2022/05/09 08:02:44;;;;;;;8.40;2.60;;;;;;;;;;6220442;28;20146;-84
2022/05/09 08:05:44;;;;;;;6.90;2.37;;;;;;;;;;6219546;28;20018;-84
2022/05/09 08:08:46;;;;;;;12.57;4.20;;;;;;;;;;6233561;28;20049;-84
2022/05/09 08:11:46;;;;;;;12.05;4.43;;;;;;;;;;6219506;28;20030;-84
2022/05/09 08:14:46;;;;;;;5.27;2.10;;;;;;;;;;6235050;28;20106;-84
2022/05/09 08:17:49;;;;;;;8.50;1.97;;;;;;;;;;6196734;28;20030;-84
2022/05/09 08:20:50;;;;;;;6.60;2.20;;;;;;;;;;6204794;28;20080;-84
2022/05/09 08:23:51;;;;;;;7.95;2.30;;;;;;;;;;6198336;28;20045;-84
2022/05/09 08:26:51;;;;;;;6.20;2.47;;;;;;;;;;6197268;28;20054;-84
2022/05/09 08:29:56;;;;;;;3.53;2.00;;;;;;;;;;6198385;28;20029;-85
2022/05/09 08:32:56;;;;;;;6.38;1.92;;;;;;;;;;6196363;28;20605;-85
2022/05/09 08:35:57;;;;;;;4.70;2.13;;;;;;;;;;6200143;28;20033;-85
2022/05/09 08:38:57;;;;;;;6.13;2.30;;;;;;;;;;6188423;28;20030;-84
2022/05/09 08:42:04;;;;;;;6.40;2.17;;;;;;;;;;6208845;28;20261;-84
2022/05/09 08:45:07;;;;;;;8.65;3.00;;;;;;;;;;6238986;28;20022;-84
2022/05/09 08:48:07;;;;;;;5.32;1.90;;;;;;;;;;6239633;28;20078;-84
2022/05/09 08:51:11;;;;;;;7.23;2.40;;;;;;;;;;6222944;28;20071;-84
2022/05/09 08:54:15;;;;;;;6.68;2.65;;;;;;;;;;6220581;28;20021;-84
2022/05/09 08:57:18;;;;;;;7.10;2.45;;;;;;;;;;6232783;28;20014;-84
2022/05/09 09:00:20;;;;;;;6.82;1.88;;;;;;;;;;6235017;28;20468;-84
2022/05/09 09:03:35;;;;;;;8.02;2.10;;;;;;;;;;6240980;28;20022;-84
2022/05/09 09:06:41;;;;;;;5.65;2.35;;;;;;;;;;6223173;28;20036;-84
2022/05/09 09:09:54;;;;;;;7.70;2.17;;;;;;;;;;6216693;28;20081;-84
2022/05/09 09:13:09;;;;;;;4.38;2.42;;;;;;;;;;6198412;28;20053;-84
2022/05/09 09:16:12;;;;;;;5.40;2.25;;;;;;;;;;6235060;28;20071;-84
2022/05/09 09:19:22;;;;;;;9.30;2.47;;;;;;;;;;6240933;28;20024;-84
2022/05/09 09:22:49;;;;;;;5.65;2.38;;;;;;;;;;6215919;28;20041;-84
2022/05/09 09:26:03;;;;;;;4.97;3.17;;;;;;;;;;6216450;28;20041;-85
2022/05/09 09:29:07;;;;;;;8.27;2.88;;;;;;;;;;6216316;28;20084;-84
2022/05/09 09:32:09;;;;;;;6.93;2.30;;;;;;;;;;6216152;28;20354;-84
2022/05/09 09:35:14;;;;;;;6.97;2.60;;;;;;;;;;6200342;28;20097;-85
2022/05/09 09:38:14;;;;;;;8.85;3.22;;;;;;;;;;6225734;28;20389;-84
2022/05/09 09:41:17;;;;;;;12.33;4.10;;;;;;;;;;6223252;28;20029;-84
2022/05/09 09:44:20;;;;;;;9.32;3.47;;;;;;;;;;6226869;28;20025;-84
2022/05/09 09:47:20;;;;;;;6.20;2.13;;;;;;;;;;6244698;28;20391;-84
2022/05/09 09:50:25;;;;;;;7.87;2.23;;;;;;;;;;6244051;28;20086;-84
2022/05/09 09:53:51;;;;;;;6.75;2.75;;;;;;;;;;6244297;28;20022;-84
2022/05/09 09:56:52;;;;;;;3.50;2.22;;;;;;;;;;6220658;28;20058;-84
2022/05/09 09:59:52;;;;;;;11.90;2.80;;;;;;;;;;6232783;28;20033;-84
2022/05/09 10:02:54;;;;;;;6.13;2.33;;;;;;;;;;6348438;28;20076;-84
2022/05/09 10:05:56;;;;;;;8.10;2.20;;;;;;;;;;6330529;28;20023;-84
2022/05/09 10:08:58;;;;;;;7.22;2.10;;;;;;;;;;6272509;28;20033;-84
2022/05/09 10:12:13;;;;;;;5.78;2.33;;;;;;;;;;6219863;28;20384;-84
2022/05/09 10:15:30;;;;;;;6.00;2.13;;;;;;;;;;6214027;28;20587;-84
2022/05/09 10:18:31;;;;;;;7.30;2.90;;;;;;;;;;6245220;28;20429;-84
2022/05/09 10:24:57;;;;;;;11.85;3.40;;;;;;;;;;6220075;28;20030;-84
2022/05/09 10:28:00;;;;;;;5.95;2.20;;;;;;;;;;6201960;28;20484;-84
2022/05/09 10:31:10;;;;;;;6.10;2.47;;;;;;;;;;6219301;28;20022;-84
2022/05/09 10:34:17;;;;;;;6.97;2.30;;;;;;;;;;6201773;28;20115;-84
2022/05/09 10:37:40;;;;;;;7.00;2.50;;;;;;;;;;6219888;28;20537;-84
2022/05/09 10:40:43;;;;;;;9.77;2.38;;;;;;;;;;6206977;28;20022;-84
2022/05/09 10:43:55;;;;;;;6.10;2.33;;;;;;;;;;6188052;28;20124;-84
2022/05/09 10:47:15;;;;;;;6.65;2.30;;;;;;;;;;6198973;28;20521;-83
2022/05/09 10:50:22;;;;;;;8.83;3.67;;;;;;;;;;6194258;28;20561;-84
2022/05/09 10:53:31;;;;;;;15.55;6.53;;;;;;;;;;6194350;28;20029;-84
2022/05/09 10:56:39;;;;;;;12.50;3.20;;;;;;;;;;6225121;28;20056;-83
2022/05/09 10:59:41;;;;;;;6.18;2.47;;;;;;;;;;6200070;28;20474;-84
2022/05/09 11:02:48;;;;;;;10.75;3.20;;;;;;;;;;6177468;28;20014;-84
2022/05/09 11:05:57;;;;;;;10.63;3.35;;;;;;;;;;6201605;28;20024;-84
2022/05/09 11:08:57;;;;;;;8.98;3.45;;;;;;;;;;6196931;28;20122;-84
2022/05/09 11:12:04;;;;;;;8.43;3.20;;;;;;;;;;6181750;28;20038;-84
2022/05/09 11:15:04;;;;;;;7.97;3.47;;;;;;;;;;6214019;28;20056;-84
2022/05/09 11:18:04;;;;;;;11.07;4.47;;;;;;;;;;6225543;28;20563;-84
2022/05/09 11:21:20;;;;;;;9.20;3.80;;;;;;;;;;6243298;28;20357;-84
2022/05/09 11:24:42;;;;;;;10.38;3.80;;;;;;;;;;6219848;28;20026;-84
2022/05/09 11:28:06;;;;;;;8.50;2.90;;;;;;;;;;6218345;28;20022;-83
2022/05/09 11:31:06;;;;;;;4.78;2.55;;;;;;;;;;6190654;28;20026;-84
2022/05/09 11:34:17;;;;;;;11.93;3.83;;;;;;;;;;6218083;28;20026;-84
2022/05/09 11:37:32;;;;;;;7.25;2.35;;;;;;;;;;6236094;28;20025;-85
2022/05/09 11:41:11;;;;;;;9.13;3.50;;;;;;;;;;6242079;28;20495;-83
2022/05/09 11:44:11;;;;;;;8.05;3.50;;;;;;;;;;6235065;28;20021;-84
2022/05/09 11:47:14;;;;;;;10.53;3.40;;;;;;;;;;6241990;28;20033;-84
2022/05/09 11:50:26;;;;;;;7.75;2.80;;;;;;;;;;6199789;28;20132;-83
2022/05/09 11:53:26;;;;;;;;;;;;;;;;;;6207501;28;20465;-84
2022/05/09 11:56:29;;;;;;;9.35;3.67;;;;;;;;;;6210742;28;19928;-84
2022/05/09 11:59:33;;;;;;;8.07;2.97;;;;;;;;;;6207861;28;20026;-84
2022/05/09 12:02:42;;;;;;;13.18;3.38;;;;;;;;;;6193516;28;20041;-84
2022/05/09 12:05:49;;;;;;;6.30;2.72;;;;;;;;;;6200945;28;20040;-84
2022/05/09 12:08:50;;;;;;;7.35;2.15;;;;;;;;;;6198083;28;20053;-85
2022/05/09 12:11:51;;;;;;;7.63;2.37;;;;;;;;;;6218679;28;20048;-85
2022/05/09 12:14:52;;;;;;;8.50;2.70;;;;;;;;;;6229226;28;20030;-84
2022/05/09 12:17:53;;;;;;;;;;;;;;;;;;6214865;28;20430;-84
2022/05/09 12:20:53;;;;;;;6.83;2.40;;;;;;;;;;6216764;28;19920;-84
2022/05/09 12:24:09;;;;;;;4.93;2.57;;;;;;;;;;6188961;28;20415;-84
2022/05/09 12:27:45;;;;;;;7.25;2.53;;;;;;;;;;6200339;28;20057;-84
2022/05/09 12:31:02;;;;;;;8.25;3.58;;;;;;;;;;6239457;28;20532;-84
2022/05/09 12:34:03;;;;;;;8.07;2.30;;;;;;;;;;6195684;28;20103;-84
2022/05/09 12:37:03;;;;;;;7.47;3.08;;;;;;;;;;6198386;28;20018;-84
2022/05/09 12:40:04;;;;;;;;;;;;;;;;;;6174753;28;20030;-84
2022/05/09 12:43:06;;;;;;;6.55;2.58;;;;;;;;;;6199261;28;19952;-84
2022/05/09 12:46:09;;;;;;;12.80;3.65;;;;;;;;;;6191497;28;20075;-84
2022/05/09 12:49:09;;;;;;;8.38;2.67;;;;;;;;;;6191592;28;20033;-84
2022/05/09 12:52:11;;;;;;;8.10;2.55;;;;;;;;;;6203862;28;20049;-84
2022/05/09 12:58:33;;;;;;;9.05;2.70;;;;;;;;;;6203679;28;20030;-84
2022/05/09 13:01:34;;;;;;;6.20;2.53;;;;;;;;;;6227590;28;20032;-84
2022/05/09 13:04:36;;;;;;;6.72;2.50;;;;;;;;;;6204756;28;20026;-84
2022/05/09 13:07:56;;;;;;;11.63;3.08;;;;;;;;;;6193774;28;20026;-84
2022/05/09 13:10:57;;;;;;;8.32;3.10;;;;;;;;;;6202254;28;20531;-84
2022/05/09 13:13:58;;;;;;;;;;;;;;;;;;6197214;28;20015;-84
2022/05/09 13:17:01;;;;;;;11.50;3.55;;;;;;;;;;6197037;28;20272;-84
2022/05/09 13:20:03;;;;;;;7.35;2.72;;;;;;;;;;6181836;28;20027;-85
2022/05/09 13:23:06;;;;;;;7.82;3.08;;;;;;;;;;6184756;28;20389;-84
2022/05/09 13:26:09;;;;;;;5.95;2.42;;;;;;;;;;6205203;28;20023;-84
2022/05/09 13:29:10;;;;;;;8.63;2.83;;;;;;;;;;6183498;28;20019;-84
2022/05/09 13:32:22;;;;;;;8.40;2.50;;;;;;;;;;6184739;28;20377;-84
2022/05/09 13:35:25;;;;;;;8.32;2.60;;;;;;;;;;6183419;28;20280;-84
2022/05/09 13:38:29;;;;;;;7.65;3.35;;;;;;;;;;6205006;28;20922;-84
2022/05/09 13:41:30;;;;;;;8.95;2.72;;;;;;;;;;6198956;28;20750;-84
2022/05/09 13:44:31;;;;;;;7.63;2.97;;;;;;;;;;6186272;28;20065;-84
2022/05/09 13:47:33;;;;;;;10.45;3.00;;;;;;;;;;6209401;28;20190;-84
2022/05/09 13:50:35;;;;;;;4.32;2.30;;;;;;;;;;6212911;28;20050;-83
2022/05/09 13:53:42;;;;;;;8.07;2.33;;;;;;;;;;6270324;28;20054;-84
2022/05/09 13:56:43;;;;;;;7.25;2.45;;;;;;;;;;6205551;28;20032;-84
2022/05/09 13:59:45;;;;;;;4.38;2.55;;;;;;;;;;6222083;28;20464;-84
2022/05/09 14:02:48;;;;;;;7.93;2.78;;;;;;;;;;6273981;28;20079;-85
2022/05/09 14:05:50;;;;;;;3.95;1.98;;;;;;;;;;6205234;28;20365;-85
2022/05/09 14:08:52;;;;;;;10.65;3.83;;;;;;;;;;6227439;28;20077;-84
2022/05/09 14:11:52;;;;;;;5.47;2.28;;;;;;;;;;6195547;28;20104;-84
2022/05/09 14:15:04;;;;;;;7.13;2.50;;;;;;;;;;6240641;28;20023;-84
2022/05/09 14:18:08;;;;;;;8.40;2.97;;;;;;;;;;6240249;28;20057;-84
2022/05/09 14:21:19;;;;;;;6.35;2.63;;;;;;;;;;6180973;28;20018;-84
2022/05/09 14:24:29;;;;;;;6.05;2.10;;;;;;;;;;6196210;28;20505;-84
2022/05/09 14:30:48;;;;;;;3.55;1.92;;;;;;;;;;6191979;28;20487;-84
2022/05/09 14:33:48;;;;;;;6.53;2.87;;;;;;;;;;6193244;28;20053;-84
2022/05/09 14:36:49;;;;;;;5.17;2.40;;;;;;;;;;6197115;28;20024;-84
2022/05/09 14:40:04;;;;;;;6.05;3.78;;;;;;;;;;6204326;28;20014;-84
2022/05/09 14:43:06;;;;;;;7.40;3.60;;;;;;;;;;6244963;28;20026;-84
2022/05/09 14:46:06;;;;;;;8.43;3.13;;;;;;;;;;6193589;28;20101;-84
2022/05/09 14:49:25;;;;;;;6.90;2.87;;;;;;;;;;6193838;28;20018;-84
2022/05/09 14:52:36;;;;;;;8.93;2.70;;;;;;;;;;6192569;28;20281;-84
2022/05/09 14:59:11;;;;;;;8.77;3.08;;;;;;;;;;6200936;28;20026;-84
2022/05/09 15:02:19;;;;;;;7.30;2.83;;;;;;;;;;6195888;28;20067;-84
2022/05/09 15:05:19;;;;;;;5.70;2.80;;;;;;;;;;6192095;28;20026;-84
2022/05/09 15:08:22;;;;;;;8.00;3.83;;;;;;;;;;6207200;28;20204;-84
2022/05/09 15:11:24;;;;;;;7.63;2.25;;;;;;;;;;6217039;28;20026;-84
2022/05/09 15:14:24;;;;;;;4.75;2.28;;;;;;;;;;6219369;28;20385;-84
2022/05/09 15:17:24;;;;;;;8.83;2.50;;;;;;;;;;6216077;28;20056;-84
2022/05/09 15:20:24;;;;;;;3.90;1.90;;;;;;;;;;6221757;28;20030;-84
2022/05/09 15:23:25;;;;;;;8.33;2.73;;;;;;;;;;6216853;28;20075;-85
2022/05/09 15:26:28;;;;;;;8.37;3.07;;;;;;;;;;6205485;28;20022;-84
2022/05/09 15:29:29;;;;;;;8.27;3.30;;;;;;;;;;6217343;28;20026;-85
2022/05/09 15:32:29;;;;;;;6.90;2.75;;;;;;;;;;6224229;28;20028;-84
2022/05/09 15:35:29;;;;;;;6.43;3.13;;;;;;;;;;6236419;28;20880;-84
2022/05/09 15:38:30;;;;;;;8.57;2.77;;;;;;;;;;6205764;28;20397;-84
2022/05/09 15:41:30;;;;;;;9.97;2.73;;;;;;;;;;6207291;28;20431;-85
2022/05/09 15:44:31;;;;;;;4.13;2.27;;;;;;;;;;6200226;28;20438;-85
2022/05/09 15:47:33;;;;;;;6.73;2.47;;;;;;;;;;6265820;28;20018;-84
2022/05/09 15:50:34;;;;;;;6.35;2.63;;;;;;;;;;6211446;28;20054;-85
2022/05/09 15:53:34;;;;;;;4.17;2.17;;;;;;;;;;6199537;28;20018;-85
2022/05/09 15:56:36;;;;;;;4.87;2.00;;;;;;;;;;6260967;28;20024;-85
2022/05/09 15:59:36;;;;;;;7.50;2.47;;;;;;;;;;6217445;28;20022;-85
2022/05/09 16:02:37;;;;;;;4.07;2.50;;;;;;;;;;6237812;28;20125;-84
2022/05/09 16:12:15;;;;;;;6.07;2.42;;;;;;;;;;6211462;28;20037;-84
2022/05/09 16:15:18;;;;;;;6.27;2.33;;;;;;;;;;6262214;28;20518;-84
2022/05/09 16:18:19;;;;;;;9.68;3.97;;;;;;;;;;6199472;28;20481;-85
2022/05/09 16:21:19;;;;;;;8.00;2.70;;;;;;;;;;6217977;28;20029;-84
2022/05/09 16:24:20;;;;;;;6.10;1.70;;;;;;;;;;6208930;28;20057;-84
2022/05/09 16:27:25;;;;;;;6.13;2.27;;;;;;;;;;6218362;28;20047;-84
2022/05/09 16:30:32;;;;;;;6.43;2.30;;;;;;;;;;6285546;28;20558;-84
2022/05/09 16:33:33;;;;;;;6.32;2.67;;;;;;;;;;6205824;28;20347;-84
2022/05/09 16:36:33;;;;;;;7.47;2.50;;;;;;;;;;6193417;28;20022;-84
2022/05/09 16:39:35;;;;;;;7.73;2.23;;;;;;;;;;6193619;28;20023;-84
2022/05/09 16:42:39;;;;;;;4.68;2.15;;;;;;;;;;6220931;28;20420;-84
2022/05/09 16:45:39;;;;;;;8.07;2.67;;;;;;;;;;6231562;28;20022;-84
2022/05/09 16:48:39;;;;;;;8.17;3.17;;;;;;;;;;6196987;28;20907;-84
2022/05/09 16:51:39;;;;;;;6.17;2.37;;;;;;;;;;6177455;28;20015;-84
2022/05/09 16:54:39;;;;;;;5.80;2.50;;;;;;;;;;6186560;28;20067;-84
2022/05/09 16:57:40;;;;;;;4.83;2.27;;;;;;;;;;6235335;28;20025;-84
2022/05/09 17:00:41;;;;;;;3.97;3.20;;;;;;;;;;6242024;28;20111;-84
2022/05/09 17:03:42;;;;;;;6.32;2.88;;;;;;;;;;6242522;28;20029;-84
2022/05/09 17:06:42;;;;;;;4.20;2.37;;;;;;;;;;6224518;28;20024;-84
2022/05/09 17:09:45;;;;;;;7.77;2.13;;;;;;;;;;6210161;28;20046;-84
2022/05/09 17:12:47;;;;;;;7.38;3.25;;;;;;;;;;6202380;28;20394;-84
2022/05/09 17:15:49;;;;;;;14.35;3.33;;;;;;;;;;6186749;28;20018;-84
2022/05/09 17:18:49;;;;;;;5.32;2.45;;;;;;;;;;6197348;28;20101;-84
2022/05/09 17:21:49;;;;;;;12.23;3.07;;;;;;;;;;6203071;28;20471;-84
2022/05/09 17:24:50;;;;;;;7.40;2.87;;;;;;;;;;6208948;28;20441;-84
2022/05/09 17:27:50;;;;;;;8.80;3.23;;;;;;;;;;6216356;28;20108;-84
2022/05/09 17:30:51;;;;;;;10.13;4.10;;;;;;;;;;6199854;28;20026;-84
2022/05/09 17:33:51;;;;;;;6.10;2.90;;;;;;;;;;6217320;28;20461;-84
2022/05/09 17:40:10;;;;;;;7.88;3.67;;;;;;;;;;6245369;28;20529;-84
2022/05/09 17:43:11;;;;;;;5.17;2.60;;;;;;;;;;6203676;28;20072;-84
2022/05/09 17:46:18;;;;;;;8.10;2.53;;;;;;;;;;6196143;28;20423;-84
2022/05/09 17:49:19;;;;;;;7.30;3.20;;;;;;;;;;6198941;28;20042;-84
2022/05/09 17:52:19;;;;;;;5.77;2.70;;;;;;;;;;6189319;28;20033;-84
2022/05/09 17:55:19;;;;;;;11.10;3.33;;;;;;;;;;6204627;28;20032;-84
2022/05/09 17:58:21;;;;;;;8.17;3.30;;;;;;;;;;6195250;28;20019;-84
2022/05/09 18:01:26;;;;;;;9.05;4.65;;;;;;;;;;6208111;28;20405;-84
2022/05/09 18:04:26;;;;;;;5.15;3.10;;;;;;;;;;6207259;28;20025;-84
2022/05/09 18:07:27;;;;;;;11.60;5.60;;;;;;;;;;6188466;28;20026;-84
2022/05/09 18:10:27;;;;;;;12.83;4.37;;;;;;;;;;6230706;28;20046;-84
2022/05/09 18:13:28;;;;;;;7.67;3.97;;;;;;;;;;6213512;28;20530;-84
2022/05/09 18:16:29;;;;;;;9.75;4.03;;;;;;;;;;6332903;28;20011;-84
2022/05/09 18:19:31;;;;;;;7.33;3.90;;;;;;;;;;6212455;28;20018;-84
2022/05/09 18:22:32;;;;;;;8.77;4.47;;;;;;;;;;6206564;28;20018;-85
2022/05/09 18:25:34;;;;;;;11.18;4.70;;;;;;;;;;6201710;28;20029;-84
2022/05/09 18:28:35;;;;;;;8.57;4.63;;;;;;;;;;6203331;28;20057;-84
2022/05/09 18:31:37;;;;;;;11.47;4.57;;;;;;;;;;6184228;28;20022;-84
2022/05/09 18:34:38;;;;;;;17.83;4.85;;;;;;;;;;6206851;28;20026;-84
2022/05/09 18:37:43;;;;;;;22.70;4.67;;;;;;;;;;6217122;28;20022;-84
2022/05/09 18:40:44;;;;;;;11.75;4.45;;;;;;;;;;6218411;28;20335;-84
2022/05/09 18:43:47;;;;;;;10.70;3.60;;;;;;;;;;6179429;28;20557;-84